createdAt,value
2019-04-03T00:00:40.779Z,49.20
2019-04-03T00:03:11.716Z,49.50
2019-04-03T00:05:42.583Z,49.30
2019-04-03T00:08:12.984Z,49.20
2019-04-03T00:10:43.978Z,49.10
2019-04-03T00:13:14.669Z,49.10
2019-04-03T00:15:45.289Z,49.20
2019-04-03T00:18:16.692Z,49.30
2019-04-03T00:20:48.823Z,49.20
2019-04-03T00:23:20.649Z,49.20
2019-04-03T00:25:52.370Z,49.20
2019-04-03T00:28:23.509Z,49.20
2019-04-03T00:30:53.862Z,49.20
2019-04-03T00:33:24.381Z,49.20
2019-04-03T00:35:54.818Z,48.90
2019-04-03T00:38:25.212Z,49.00
2019-04-03T00:40:55.743Z,49.00
2019-04-03T00:43:26.121Z,48.90
2019-04-03T00:45:56.588Z,49.20
2019-04-03T00:48:26.992Z,49.50
2019-04-03T00:50:57.705Z,49.40
2019-04-03T00:53:28.831Z,49.50
2019-04-03T00:55:59.498Z,49.60
2019-04-03T00:58:36.866Z,49.70
2019-04-03T01:01:08.796Z,49.70
2019-04-03T01:03:39.432Z,49.90
2019-04-03T01:06:10.057Z,49.80
2019-04-03T01:08:40.632Z,49.80
2019-04-03T01:11:11.390Z,49.90
2019-04-03T01:13:42.167Z,50.00
2019-04-03T01:16:12.995Z,50.00
2019-04-03T01:18:43.549Z,50.00
2019-04-03T01:21:14.161Z,49.50
2019-04-03T01:23:44.732Z,49.60
2019-04-03T01:26:15.320Z,49.30
2019-04-03T01:28:46.090Z,49.30
2019-04-03T01:31:16.688Z,49.20
2019-04-03T01:33:47.230Z,49.20
2019-04-03T01:36:18.258Z,49.30
2019-04-03T01:38:49.715Z,49.40
2019-04-03T01:41:21.618Z,49.50
2019-04-03T01:43:53.868Z,49.60
2019-04-03T01:46:27.240Z,49.50
2019-04-03T01:48:58.649Z,49.60
2019-04-03T01:51:30.319Z,49.50
2019-04-03T01:54:02.888Z,49.50
2019-04-03T01:56:33.851Z,50.00
2019-04-03T01:59:06.568Z,49.80
2019-04-03T02:01:38.637Z,50.10
2019-04-03T02:04:12.108Z,50.10
2019-04-03T02:06:43.746Z,50.20
2019-04-03T02:09:16.009Z,49.90
2019-04-03T02:11:47.611Z,49.90
2019-04-03T02:14:21.035Z,49.60
2019-04-03T02:16:53.460Z,49.40
2019-04-03T02:19:26.276Z,49.70
2019-04-03T02:21:58.502Z,49.90
2019-04-03T02:24:31.120Z,50.10
2019-04-03T02:27:03.140Z,50.30
2019-04-03T02:29:33.482Z,50.40
2019-04-03T02:32:04.320Z,50.50
2019-04-03T02:34:36.115Z,50.30
2019-04-03T02:37:07.230Z,50.50
2019-04-03T02:39:37.961Z,50.50
2019-04-03T02:42:09.854Z,50.70
2019-04-03T02:44:41.265Z,50.50
2019-04-03T02:47:12.110Z,50.40
2019-04-03T02:49:43.686Z,50.20
2019-04-03T02:52:14.670Z,50.30
2019-04-03T02:54:45.932Z,50.30
2019-04-03T02:57:17.847Z,50.20
2019-04-03T02:59:49.139Z,50.10
2019-04-03T03:02:20.264Z,50.00
2019-04-03T03:04:53.923Z,49.80
2019-04-03T03:07:23.726Z,49.70
2019-04-03T03:09:55.232Z,49.80
2019-04-03T03:12:27.685Z,49.80
2019-04-03T03:14:59.483Z,49.90
2019-04-03T03:17:30.640Z,50.00
2019-04-03T03:20:06.519Z,50.10
2019-04-03T03:22:35.809Z,50.40
2019-04-03T03:25:07.644Z,50.30
2019-04-03T03:27:41.618Z,50.40
2019-04-03T03:30:30.531Z,50.60
2019-04-03T03:32:43.858Z,50.50
2019-04-03T03:35:20.058Z,50.70
2019-04-03T03:37:47.580Z,50.60
2019-04-03T03:40:18.208Z,50.70
2019-04-03T03:42:49.303Z,50.70
2019-04-03T03:45:21.063Z,50.80
2019-04-03T03:47:52.263Z,50.90
2019-04-03T03:50:26.269Z,50.70
2019-04-03T03:52:57.135Z,50.40
2019-04-03T03:55:27.579Z,50.40
2019-04-03T03:57:58.679Z,50.00
2019-04-03T04:00:29.551Z,50.30
2019-04-03T04:03:00.375Z,50.40
2019-04-03T04:05:31.160Z,50.60
2019-04-03T04:08:02.145Z,50.50
2019-04-03T04:10:35.818Z,50.50
2019-04-03T04:13:05.341Z,50.40
2019-04-03T04:15:35.888Z,50.30
2019-04-03T04:18:06.616Z,50.40
2019-04-03T04:20:38.523Z,50.50
2019-04-03T04:23:09.611Z,50.30
2019-04-03T04:25:43.222Z,50.50
2019-04-03T04:28:12.644Z,50.40
2019-04-03T04:30:45.020Z,50.40
2019-04-03T04:33:16.943Z,50.40
2019-04-03T04:35:51.405Z,50.40
2019-04-03T04:38:20.592Z,50.80
2019-04-03T04:40:51.561Z,50.50
2019-04-03T04:43:22.074Z,50.20
2019-04-03T04:45:52.990Z,50.70
2019-04-03T04:48:24.111Z,49.90
2019-04-03T04:50:55.478Z,50.10
2019-04-03T04:53:29.362Z,50.20
2019-04-03T04:55:58.755Z,50.60
2019-04-03T04:58:29.552Z,50.40
2019-04-03T05:01:00.252Z,54.90
2019-04-03T05:03:30.918Z,61.90
2019-04-03T05:06:01.634Z,58.30
2019-04-03T05:08:32.980Z,53.70
2019-04-03T05:11:05.571Z,53.40
2019-04-03T05:13:36.523Z,53.00
2019-04-03T05:16:07.171Z,52.60
2019-04-03T05:18:37.730Z,52.50
2019-04-03T05:21:08.299Z,51.50
2019-04-03T05:23:39.230Z,51.30
2019-04-03T05:26:10.132Z,50.60
2019-04-03T05:28:53.102Z,50.00
2019-04-03T05:31:13.394Z,48.60
2019-04-03T05:33:44.222Z,47.70
2019-04-03T05:36:17.097Z,46.90
2019-04-03T05:38:47.660Z,46.40
2019-04-03T05:41:19.608Z,47.20
2019-04-03T05:43:50.430Z,48.00
2019-04-03T05:46:21.392Z,48.60
2019-04-03T05:48:52.321Z,49.20
2019-04-03T05:51:23.046Z,49.00
2019-04-03T05:53:54.500Z,48.90
2019-04-03T05:56:25.912Z,48.50
2019-04-03T05:59:00.384Z,47.30
2019-04-03T06:01:29.098Z,46.10
2019-04-03T06:03:59.678Z,46.20
2019-04-03T06:06:30.548Z,46.20
2019-04-03T06:09:01.552Z,45.40
2019-04-03T06:11:32.331Z,43.70
2019-04-03T06:14:03.270Z,42.50
2019-04-03T06:16:33.734Z,42.10
2019-04-03T06:19:06.389Z,41.60
2019-04-03T06:21:37.228Z,41.40
2019-04-03T06:24:08.016Z,41.40
2019-04-03T06:26:38.848Z,41.00
2019-04-03T06:29:09.550Z,41.20
2019-04-03T06:31:40.313Z,41.40
2019-04-03T06:34:10.772Z,41.60
2019-04-03T06:36:41.837Z,41.90
2019-04-03T06:39:12.523Z,42.10
2019-04-03T06:41:43.052Z,42.30
2019-04-03T06:44:16.240Z,42.40
2019-04-03T06:46:46.888Z,42.60
2019-04-03T06:49:17.654Z,42.70
2019-04-03T06:51:49.431Z,42.90
2019-04-03T06:54:20.473Z,43.00
2019-04-03T06:56:52.921Z,43.10
2019-04-03T06:59:23.709Z,43.20
2019-04-03T07:01:54.328Z,43.30
2019-04-03T07:04:24.862Z,43.40
2019-04-03T07:06:56.618Z,43.40
2019-04-03T07:09:35.219Z,43.40
2019-04-03T07:12:00.232Z,43.50
2019-04-03T07:14:30.786Z,43.50
2019-04-03T07:17:02.533Z,43.70
2019-04-03T07:19:34.267Z,43.80
2019-04-03T07:22:04.841Z,44.00
2019-04-03T07:24:35.587Z,44.10
2019-04-03T07:27:06.961Z,44.20
2019-04-03T07:29:37.877Z,44.20
2019-04-03T07:32:08.355Z,44.30
2019-04-03T07:34:39.066Z,44.40
2019-04-03T07:37:09.869Z,44.60
2019-04-03T07:39:40.833Z,44.30
2019-04-03T07:42:11.832Z,44.60
2019-04-03T07:44:42.737Z,44.80
2019-04-03T07:47:13.280Z,45.10
2019-04-03T07:49:44.282Z,45.10
2019-04-03T07:52:16.554Z,44.60
2019-04-03T07:54:47.432Z,44.70
2019-04-03T07:57:18.099Z,44.50
2019-04-03T07:59:48.533Z,44.90
2019-04-03T08:02:19.175Z,45.20
2019-04-03T08:04:50.376Z,45.10
2019-04-03T08:07:21.091Z,45.10
2019-04-03T08:09:51.584Z,45.20
2019-04-03T08:12:22.549Z,45.20
2019-04-03T08:14:53.382Z,45.10
2019-04-03T08:17:24.324Z,45.20
2019-04-03T08:19:55.267Z,45.10
2019-04-03T08:22:25.795Z,45.10
2019-04-03T08:24:56.491Z,45.00
2019-04-03T08:27:26.937Z,45.00
2019-04-03T08:29:57.476Z,45.00
2019-04-03T08:32:29.132Z,44.90
2019-04-03T08:35:02.377Z,45.50
2019-04-03T08:37:32.786Z,44.90
2019-04-03T08:40:03.796Z,44.90
2019-04-03T08:42:34.358Z,44.80
2019-04-03T08:45:06.607Z,44.80
2019-04-03T08:47:37.735Z,44.90
2019-04-03T08:50:09.900Z,44.80
2019-04-03T08:52:40.882Z,44.80
2019-04-03T08:55:14.024Z,44.70
2019-04-03T08:57:45.854Z,44.60
2019-04-03T09:00:17.625Z,44.60
2019-04-03T09:02:48.448Z,44.60
2019-04-03T09:05:19.732Z,44.60
2019-04-03T09:07:50.799Z,44.60
2019-04-03T09:10:21.819Z,44.60
2019-04-03T09:12:52.611Z,44.50
2019-04-03T09:15:23.307Z,44.50
2019-04-03T09:17:53.993Z,44.50
2019-04-03T09:20:24.769Z,44.50
2019-04-03T09:22:55.343Z,44.40
2019-04-03T09:25:25.938Z,44.40
2019-04-03T09:27:56.547Z,44.40
2019-04-03T09:30:27.200Z,44.40
2019-04-03T09:33:00.192Z,44.30
2019-04-03T09:35:32.078Z,44.30
2019-04-03T09:38:02.679Z,44.30
2019-04-03T09:40:33.169Z,44.20
2019-04-03T09:43:03.947Z,44.30
2019-04-03T09:45:34.731Z,44.00
2019-04-03T09:48:06.154Z,44.10
2019-04-03T09:50:36.753Z,44.00
2019-04-03T09:53:08.894Z,44.00
2019-04-03T09:55:40.113Z,44.00
2019-04-03T09:58:10.993Z,43.90
2019-04-03T10:00:42.943Z,43.90
2019-04-03T10:03:14.004Z,43.90
2019-04-03T10:05:45.135Z,43.80
2019-04-03T10:08:15.788Z,43.90
2019-04-03T10:10:47.086Z,43.80
2019-04-03T10:13:18.383Z,43.80
2019-04-03T10:15:49.200Z,43.80
2019-04-03T10:18:21.987Z,43.80
2019-04-03T10:20:52.078Z,45.00
2019-04-03T10:23:22.627Z,44.60
2019-04-03T10:25:53.699Z,44.70
2019-04-03T10:28:24.454Z,44.90
2019-04-03T10:30:55.134Z,45.00
2019-04-03T10:33:25.966Z,44.80
2019-04-03T10:35:56.866Z,44.80
2019-04-03T10:38:27.480Z,44.70
2019-04-03T10:40:58.595Z,44.70
2019-04-03T10:43:29.349Z,45.30
2019-04-03T10:46:00.104Z,44.60
2019-04-03T10:48:30.985Z,44.80
2019-04-03T10:51:01.853Z,44.90
2019-04-03T10:53:32.576Z,44.80
2019-04-03T10:56:03.422Z,44.90
2019-04-03T10:58:34.009Z,44.80
2019-04-03T11:01:04.871Z,44.90
2019-04-03T11:03:35.379Z,44.70
2019-04-03T11:06:06.246Z,45.00
2019-04-03T11:08:37.027Z,44.90
2019-04-03T11:11:07.591Z,45.10
2019-04-03T11:13:38.317Z,45.00
2019-04-03T11:16:08.880Z,44.90
2019-04-03T11:18:39.354Z,44.80
2019-04-03T11:21:12.179Z,44.70
2019-04-03T11:26:17.656Z,44.80
2019-04-03T11:28:47.014Z,44.80
2019-04-03T11:30:53.931Z,44.80
2019-04-03T11:31:26.086Z,44.80
2019-04-03T11:33:51.242Z,44.80
2019-04-03T11:36:24.795Z,44.90
2019-04-03T11:39:06.599Z,44.90
2019-04-03T11:41:26.986Z,45.30
2019-04-03T11:43:57.724Z,45.90
2019-04-03T11:46:28.244Z,45.80
2019-04-03T11:48:58.869Z,45.60
2019-04-03T11:51:30.247Z,45.50
2019-04-03T11:54:01.102Z,45.50
2019-04-03T11:56:31.761Z,45.40
2019-04-03T11:59:02.415Z,45.50
2019-04-03T12:01:33.149Z,45.50
2019-04-03T12:04:03.888Z,45.60
2019-04-03T12:06:34.644Z,45.70
2019-04-03T12:09:07.094Z,45.70
2019-04-03T12:11:39.205Z,45.60
2019-04-03T12:14:10.618Z,45.40
2019-04-03T12:16:41.514Z,45.70
2019-04-03T12:19:12.116Z,45.60
2019-04-03T12:21:42.997Z,45.60
2019-04-03T12:24:13.832Z,46.00
2019-04-03T12:26:44.716Z,45.40
2019-04-03T12:29:15.284Z,45.60
2019-04-03T12:31:45.956Z,45.60
2019-04-03T12:34:17.297Z,45.60
2019-04-03T12:36:47.910Z,46.20
2019-04-03T12:39:28.154Z,46.10
2019-04-03T12:41:59.275Z,46.10
2019-04-03T12:44:30.153Z,46.00
2019-04-03T12:47:00.601Z,46.10
2019-04-03T12:49:31.264Z,45.90
2019-04-03T12:52:03.695Z,45.70
2019-04-03T12:54:34.394Z,46.00
2019-04-03T12:57:04.970Z,45.80
2019-04-03T12:59:36.086Z,45.80
2019-04-03T13:02:08.438Z,45.60
2019-04-03T13:04:41.490Z,45.50
2019-04-03T13:07:14.473Z,45.70
2019-04-03T13:09:47.734Z,46.50
2019-04-03T13:12:23.088Z,47.40
2019-04-03T13:14:53.823Z,47.30
2019-04-03T13:17:25.845Z,47.50
2019-04-03T13:20:04.497Z,47.20
2019-04-03T13:22:32.337Z,47.80
2019-04-03T13:25:03.051Z,47.90
2019-04-03T13:27:34.388Z,48.00
2019-04-03T13:30:05.630Z,48.30
2019-04-03T13:32:37.257Z,48.30
2019-04-03T13:35:08.190Z,48.80
2019-04-03T13:37:38.992Z,48.40
2019-04-03T13:40:10.214Z,48.00
2019-04-03T13:42:40.801Z,48.30
2019-04-03T13:45:11.414Z,48.20
2019-04-03T13:47:44.543Z,53.00
2019-04-03T13:50:14.018Z,52.70
2019-04-03T13:52:48.488Z,53.40
2019-04-03T13:55:16.959Z,55.00
2019-04-03T13:57:50.364Z,53.40
2019-04-03T14:00:23.665Z,56.30
2019-04-03T14:02:56.880Z,55.40
2019-04-03T14:05:27.931Z,56.20
2019-04-03T14:07:58.658Z,52.70
2019-04-03T14:10:29.163Z,51.30
2019-04-03T14:13:00.052Z,50.50
2019-04-03T14:15:31.187Z,50.00
2019-04-03T14:18:01.741Z,49.30
2019-04-03T14:20:32.563Z,49.10
2019-04-03T14:23:04.098Z,48.70
2019-04-03T14:25:38.029Z,48.50
2019-04-03T14:28:08.210Z,48.60
2019-04-03T14:30:39.396Z,48.40
2019-04-03T14:33:12.572Z,48.40
2019-04-03T14:35:51.187Z,48.60
2019-04-03T14:38:16.204Z,48.70
2019-04-03T14:40:47.167Z,48.60
2019-04-03T14:43:17.821Z,48.60
2019-04-03T14:45:49.533Z,48.90
2019-04-03T14:48:20.587Z,49.10
2019-04-03T14:50:51.320Z,49.00
2019-04-03T14:53:22.551Z,50.10
2019-04-03T14:55:53.158Z,50.60
2019-04-03T14:58:26.911Z,51.60
2019-04-03T15:00:56.425Z,51.10
2019-04-03T15:03:27.966Z,50.60
2019-04-03T15:05:59.416Z,50.00
2019-04-03T15:08:30.393Z,50.40
2019-04-03T15:11:02.990Z,49.90
2019-04-03T15:13:33.240Z,49.60
2019-04-03T15:16:04.140Z,49.50
2019-04-03T15:18:34.962Z,49.10
2019-04-03T15:21:05.750Z,48.50
2019-04-03T15:23:40.452Z,48.80
2019-04-03T15:26:08.580Z,48.60
2019-04-03T15:28:39.814Z,48.20
2019-04-03T15:31:13.275Z,48.30
2019-04-03T15:33:43.582Z,49.00
2019-04-03T15:36:14.533Z,48.80
2019-04-03T15:38:46.360Z,48.80
2019-04-03T15:41:17.369Z,48.50
2019-04-03T15:43:51.289Z,48.60
2019-04-03T15:46:20.962Z,48.40
2019-04-03T15:48:53.583Z,48.50
2019-04-03T15:51:24.188Z,48.50
2019-04-03T15:53:55.035Z,48.40
2019-04-03T15:56:26.017Z,48.30
2019-04-03T15:58:57.868Z,48.50
2019-04-03T16:01:28.948Z,48.30
2019-04-03T16:04:00.053Z,48.80
2019-04-03T16:06:30.847Z,48.60
2019-04-03T16:09:01.525Z,48.70
2019-04-03T16:11:31.837Z,48.90
2019-04-03T16:14:02.656Z,49.10
2019-04-03T16:17:18.891Z,48.90
2019-04-03T16:19:52.133Z,49.00
2019-04-03T16:22:22.560Z,52.20
2019-04-03T16:24:54.343Z,52.20
2019-04-03T16:27:27.661Z,51.90
2019-04-03T16:29:57.294Z,51.30
2019-04-03T16:32:28.252Z,50.40
2019-04-03T16:34:58.967Z,51.10
2019-04-03T16:37:29.969Z,51.80
2019-04-03T16:40:04.172Z,52.20
2019-04-03T16:42:33.227Z,52.20
2019-04-03T16:45:08.154Z,53.00
2019-04-03T16:47:36.834Z,52.10
2019-04-03T16:50:09.946Z,51.50
2019-04-03T16:52:41.130Z,51.20
2019-04-03T16:55:11.901Z,51.10
2019-04-03T16:57:42.821Z,50.60
2019-04-03T17:00:13.438Z,50.60
2019-04-03T17:02:44.155Z,50.30
2019-04-03T17:05:15.526Z,50.70
2019-04-03T17:07:46.367Z,50.40
2019-04-03T17:10:16.780Z,51.00
2019-04-03T17:12:49.611Z,50.70
2019-04-03T17:15:19.896Z,50.20
2019-04-03T17:17:50.408Z,50.00
2019-04-03T17:20:22.615Z,49.80
2019-04-03T17:22:53.516Z,49.70
2019-04-03T17:25:26.885Z,49.40
2019-04-03T17:27:58.861Z,49.30
2019-04-03T17:30:30.641Z,49.10
2019-04-03T17:33:03.393Z,49.20
2019-04-03T17:35:34.319Z,48.90
2019-04-03T17:38:05.095Z,48.50
2019-04-03T17:40:36.572Z,48.40
2019-04-03T17:43:07.945Z,48.30
2019-04-03T17:45:38.549Z,48.30
2019-04-03T17:48:09.339Z,48.30
2019-04-03T17:50:40.064Z,48.60
2019-04-03T17:53:10.595Z,48.60
2019-04-03T17:55:42.397Z,58.00
2019-04-03T17:58:16.461Z,58.80
2019-04-03T18:00:46.405Z,57.50
2019-04-03T18:03:19.286Z,58.50
2019-04-03T18:05:49.274Z,72.60
2019-04-03T18:08:20.294Z,62.40
2019-04-03T18:10:50.747Z,58.10
2019-04-03T18:13:23.193Z,56.00
2019-04-03T18:15:53.926Z,54.70
2019-04-03T18:18:24.662Z,54.40
2019-04-03T18:20:55.250Z,53.00
2019-04-03T18:23:27.262Z,52.60
2019-04-03T18:25:59.718Z,52.50
2019-04-03T18:28:30.299Z,51.90
2019-04-03T18:31:00.901Z,52.10
2019-04-03T18:33:31.321Z,51.50
2019-04-03T18:36:01.979Z,51.30
2019-04-03T18:38:32.536Z,51.30
2019-04-03T18:41:04.355Z,51.20
2019-04-03T18:43:36.170Z,51.10
2019-04-03T18:46:10.565Z,51.20
2019-04-03T18:48:52.865Z,50.80
2019-04-03T18:51:14.688Z,51.20
2019-04-03T18:53:45.252Z,51.40
2019-04-03T18:56:16.179Z,51.70
2019-04-03T18:58:48.014Z,51.80
2019-04-03T19:01:18.941Z,51.80
2019-04-03T19:03:49.819Z,51.80
2019-04-03T19:06:21.372Z,51.70
2019-04-03T19:08:52.260Z,51.20
2019-04-03T19:11:23.298Z,51.60
2019-04-03T19:13:54.488Z,51.60
2019-04-03T19:16:29.679Z,51.70
2019-04-03T19:19:07.389Z,53.20
2019-04-03T19:21:30.795Z,53.90
2019-04-03T19:24:02.082Z,53.00
2019-04-03T19:26:33.205Z,52.70
2019-04-03T19:29:05.163Z,52.60
2019-04-03T19:31:39.932Z,52.80
2019-04-03T19:34:10.006Z,52.70
2019-04-03T19:36:43.021Z,52.90
2019-04-03T19:39:13.742Z,53.10
2019-04-03T19:41:44.741Z,53.50
2019-04-03T19:44:16.192Z,53.00
2019-04-03T19:46:49.101Z,52.90
2019-04-03T19:49:19.887Z,53.10
2019-04-03T19:51:50.750Z,53.70
2019-04-03T19:54:21.384Z,54.10
2019-04-03T19:56:52.095Z,54.10
2019-04-03T19:59:22.662Z,54.20
2019-04-03T20:01:53.624Z,54.10
2019-04-03T20:04:24.200Z,53.90
2019-04-03T20:06:55.290Z,54.00
2019-04-03T20:09:26.108Z,54.10
2019-04-03T20:11:56.943Z,54.20
2019-04-03T20:14:27.745Z,54.90
2019-04-03T20:16:58.667Z,54.80
2019-04-03T20:19:29.454Z,54.70
2019-04-03T20:22:00.290Z,54.40
2019-04-03T20:24:31.213Z,54.10
2019-04-03T20:27:02.018Z,54.10
2019-04-03T20:29:32.719Z,54.20
2019-04-03T20:32:05.016Z,54.40
2019-04-03T20:34:35.931Z,53.80
2019-04-03T20:37:06.584Z,53.80
2019-04-03T20:39:37.492Z,53.80
2019-04-03T20:42:08.267Z,53.50
2019-04-03T20:44:39.270Z,53.40
2019-04-03T20:47:10.198Z,53.30
2019-04-03T20:49:43.599Z,55.50
2019-04-03T20:52:13.494Z,55.00
2019-04-03T20:54:44.381Z,55.00
2019-04-03T20:57:15.153Z,54.80
2019-04-03T20:59:58.650Z,55.60
2019-04-03T21:02:17.992Z,55.80
2019-04-03T21:04:49.001Z,55.90
2019-04-03T21:07:23.637Z,56.00
2019-04-03T21:09:54.312Z,55.90
2019-04-03T21:12:25.107Z,55.90
2019-04-03T21:15:07.619Z,55.90
2019-04-03T21:17:27.865Z,55.80
2019-04-03T21:20:00.274Z,55.40
2019-04-03T21:22:31.123Z,55.70
2019-04-03T21:25:04.892Z,55.70
2019-04-03T21:27:34.050Z,56.30
2019-04-03T21:30:04.760Z,55.80
2019-04-03T21:32:35.458Z,55.80
2019-04-03T21:35:06.041Z,55.90
2019-04-03T21:37:39.599Z,55.80
2019-04-03T21:40:09.033Z,55.90
2019-04-03T21:42:39.825Z,55.90
2019-04-03T21:45:11.022Z,55.80
2019-04-03T21:47:42.757Z,55.60
2019-04-03T21:50:15.157Z,55.60
2019-04-03T21:52:45.614Z,55.60
2019-04-03T21:55:16.173Z,55.50
2019-04-03T21:57:47.129Z,55.30
2019-04-03T22:00:37.144Z,55.30
2019-04-03T22:03:08.508Z,55.30
2019-04-03T22:05:40.043Z,55.20
2019-04-03T22:08:11.615Z,55.00
2019-04-03T22:10:42.443Z,55.10
2019-04-03T22:13:13.602Z,55.00
2019-04-03T22:15:45.556Z,55.00
2019-04-03T22:18:16.934Z,55.10
2019-04-03T22:20:48.272Z,55.20
2019-04-03T22:23:18.953Z,55.30
2019-04-03T22:25:49.405Z,55.00
2019-04-03T22:28:19.958Z,55.00
2019-04-03T22:30:52.519Z,54.90
2019-04-03T22:33:24.051Z,54.90
2019-04-03T22:35:54.515Z,54.90
2019-04-03T22:38:25.067Z,54.90
2019-04-03T22:40:56.686Z,54.80
2019-04-03T22:43:28.383Z,54.70
2019-04-03T22:46:01.859Z,54.60
2019-04-03T22:48:35.288Z,54.60
2019-04-03T22:51:09.144Z,54.60
2019-04-03T22:53:45.554Z,54.50
2019-04-03T22:56:18.993Z,55.10
2019-04-03T22:58:53.368Z,54.50
2019-04-03T23:01:27.938Z,54.40
2019-04-03T23:04:05.030Z,54.40
2019-04-03T23:06:37.897Z,54.70
2019-04-03T23:09:12.260Z,54.40
2019-04-03T23:11:46.729Z,54.30
2019-04-03T23:14:20.249Z,54.30
2019-04-03T23:16:54.143Z,54.30
2019-04-03T23:19:27.910Z,54.80
2019-04-03T23:22:01.993Z,54.20
2019-04-03T23:24:36.922Z,54.20
2019-04-03T23:27:11.490Z,54.20
2019-04-03T23:29:45.128Z,54.30
2019-04-03T23:32:19.157Z,54.20
2019-04-03T23:34:52.923Z,54.10
2019-04-03T23:37:24.793Z,54.10
2019-04-03T23:39:56.663Z,54.10
2019-04-03T23:42:27.743Z,54.00
2019-04-03T23:44:58.926Z,54.00
2019-04-03T23:47:30.201Z,54.10
2019-04-03T23:50:01.145Z,54.10
2019-04-03T23:52:32.136Z,54.00
2019-04-03T23:55:04.541Z,54.10
2019-04-03T23:57:35.456Z,54.10
